createdAt,value
2022-09-10T05:08:38.247Z,15.60
2022-09-10T05:13:40.343Z,15.60
2022-09-10T05:18:42.179Z,15.60
2022-09-10T05:23:44.074Z,15.60
2022-09-10T05:28:45.888Z,15.60
2022-09-10T05:33:47.706Z,15.60
2022-09-10T05:38:49.513Z,15.70
2022-09-10T05:43:51.523Z,15.70
2022-09-10T05:48:54.382Z,15.70
2022-09-10T05:53:57.501Z,15.70
2022-09-10T05:58:59.348Z,15.70
2022-09-10T06:04:01.172Z,15.70
2022-09-10T06:09:03.423Z,15.70
2022-09-10T06:14:05.599Z,15.70
2022-09-10T06:19:08.420Z,15.70
2022-09-10T06:24:10.269Z,15.70
2022-09-10T06:29:12.489Z,15.70
2022-09-10T06:34:14.365Z,15.70
2022-09-10T06:39:16.989Z,15.70
2022-09-10T06:44:18.807Z,15.70
2022-09-10T06:49:21.704Z,15.70
2022-09-10T06:54:25.257Z,15.70
2022-09-10T06:59:27.131Z,15.70
2022-09-10T07:04:28.923Z,15.80
2022-09-10T07:09:30.783Z,15.80
2022-09-10T07:14:33.354Z,15.80
2022-09-10T07:19:37.169Z,15.90
2022-09-10T07:24:39.189Z,15.90
2022-09-10T07:29:41.030Z,16.00
2022-09-10T07:34:43.424Z,16.00
2022-09-10T07:39:46.156Z,16.10
2022-09-10T07:44:48.099Z,16.10
2022-09-10T07:49:49.914Z,16.20
2022-09-10T07:54:53.587Z,16.10
2022-09-10T07:59:55.550Z,16.20
2022-09-10T08:04:57.519Z,16.30
2022-09-10T08:10:00.009Z,16.30
2022-09-10T08:15:02.062Z,16.40
2022-09-10T08:20:08.824Z,16.40
2022-09-10T08:25:10.676Z,16.40
2022-09-10T08:30:13.213Z,16.50
2022-09-10T08:35:15.380Z,16.50
2022-09-10T08:40:18.594Z,16.50
2022-09-10T08:45:29.697Z,16.50
2022-09-10T08:50:49.835Z,16.50
2022-09-10T08:55:57.976Z,16.60
2022-09-10T09:01:03.382Z,16.70
2022-09-10T09:06:15.053Z,16.80
2022-09-10T09:11:26.848Z,16.90
2022-09-10T09:16:39.090Z,17.00
2022-09-10T09:21:43.962Z,17.10
2022-09-10T09:26:47.315Z,17.10
2022-09-10T09:31:53.094Z,17.10
2022-09-10T09:36:56.914Z,17.20
2022-09-10T09:42:04.112Z,17.20
2022-09-10T09:47:08.732Z,17.30
2022-09-10T09:52:21.417Z,17.40
2022-09-10T09:57:23.806Z,17.50
2022-09-10T10:02:26.130Z,17.60
2022-09-10T10:07:31.682Z,17.70
2022-09-10T10:12:33.973Z,17.70
2022-09-10T10:17:38.199Z,17.80
2022-09-10T10:22:41.777Z,17.90
2022-09-10T10:27:45.343Z,18.00
2022-09-10T10:32:57.728Z,18.10
2022-09-10T10:38:15.864Z,18.10
2022-09-10T10:43:38.916Z,18.10
2022-09-10T10:48:57.857Z,18.00
2022-09-10T10:54:16.536Z,18.10
2022-09-10T10:59:44.739Z,18.20
2022-09-10T11:04:50.441Z,18.30
2022-09-10T11:10:01.830Z,18.20
2022-09-10T11:15:36.168Z,18.20
2022-09-10T11:20:43.364Z,18.10
2022-09-10T11:25:55.256Z,18.20
2022-09-10T11:31:17.302Z,18.10
2022-09-10T11:36:25.253Z,18.10
2022-09-10T11:41:30.567Z,18.40
2022-09-10T11:46:38.572Z,18.70
2022-09-10T11:51:41.756Z,18.90
2022-09-10T11:57:07.214Z,18.90
2022-09-10T12:02:18.429Z,19.20
2022-09-10T12:07:41.376Z,19.40
2022-09-10T12:12:50.210Z,19.30
2022-09-10T12:17:59.305Z,19.30
2022-09-10T12:23:01.256Z,19.30
2022-09-10T12:28:24.921Z,19.70
2022-09-10T12:33:26.770Z,20.00
2022-09-10T12:38:48.997Z,19.90
2022-09-10T12:43:56.913Z,19.50
2022-09-10T12:49:02.029Z,19.10
2022-09-10T12:54:05.466Z,18.70
2022-09-10T12:59:32.422Z,18.50
2022-09-10T13:04:36.541Z,18.70
2022-09-10T13:09:39.286Z,19.10
2022-09-10T13:14:46.101Z,19.20
2022-09-10T13:19:49.505Z,19.40
2022-09-10T13:25:05.360Z,19.30
2022-09-10T13:30:21.499Z,19.10
2022-09-10T13:35:41.253Z,18.90
2022-09-10T13:41:02.698Z,18.70
2022-09-10T13:46:28.409Z,18.40
2022-09-10T13:51:36.954Z,18.30
2022-09-10T13:56:43.107Z,18.20
2022-09-10T14:01:53.262Z,18.10
2022-09-10T14:07:15.941Z,18.00
2022-09-10T14:12:21.001Z,17.90
2022-09-10T14:17:25.817Z,17.90
2022-09-10T14:22:28.783Z,17.90
2022-09-10T14:27:32.801Z,18.00
2022-09-10T14:32:37.525Z,18.40
2022-09-10T14:37:39.351Z,18.90
2022-09-10T14:42:41.355Z,19.00
2022-09-10T14:47:51.516Z,18.90
2022-09-10T14:52:54.474Z,19.00
2022-09-10T14:57:57.294Z,19.20
2022-09-10T15:02:59.931Z,19.50
2022-09-10T15:08:02.174Z,19.60
2022-09-10T15:13:04.670Z,19.50
2022-09-10T15:18:14.141Z,19.40
2022-09-10T15:23:17.434Z,19.20
2022-09-10T15:28:19.427Z,19.30
2022-09-10T15:33:21.497Z,19.40
2022-09-10T15:38:23.583Z,19.40
2022-09-10T15:43:26.707Z,19.50
2022-09-10T15:48:30.862Z,19.70
2022-09-10T15:53:36.054Z,19.90
2022-09-10T15:58:38.886Z,19.90
2022-09-10T16:03:50.187Z,19.90
2022-09-10T16:08:57.431Z,19.90
2022-09-10T16:14:04.527Z,19.90
2022-09-10T16:19:12.014Z,19.80
2022-09-10T16:24:21.042Z,19.60
2022-09-10T16:29:24.680Z,19.40
2022-09-10T16:34:26.827Z,19.10
2022-09-10T16:39:29.135Z,18.90
2022-09-10T16:44:31.573Z,18.80
2022-09-10T16:49:33.549Z,18.80
2022-09-10T16:54:37.586Z,18.80
2022-09-10T16:59:39.536Z,18.80
2022-09-10T17:04:41.421Z,18.90
2022-09-10T17:09:43.346Z,18.90
2022-09-10T17:14:45.919Z,18.90
2022-09-10T17:19:48.117Z,18.90
2022-09-10T17:24:50.028Z,19.00
2022-09-10T17:29:51.956Z,18.90
2022-09-10T17:34:53.927Z,18.90
2022-09-10T17:40:04.627Z,18.80
2022-09-10T17:45:07.267Z,18.70
2022-09-10T17:50:09.400Z,18.70
2022-09-10T17:55:11.357Z,18.50
2022-09-10T18:00:13.674Z,18.40
2022-09-10T18:05:15.630Z,18.20
2022-09-10T18:10:17.981Z,18.00
2022-09-10T18:15:19.749Z,17.90
2022-09-10T18:20:23.155Z,17.80
2022-09-10T18:25:28.212Z,17.80
2022-09-10T18:30:30.186Z,17.80
2022-09-10T18:35:32.043Z,17.80
2022-09-10T18:40:35.995Z,17.70
2022-09-10T18:45:37.839Z,17.60
2022-09-10T18:50:39.653Z,17.50
2022-09-10T18:55:42.205Z,17.50
2022-09-10T19:00:44.764Z,17.40
2022-09-10T19:05:46.598Z,17.40
2022-09-10T19:10:48.645Z,17.40
2022-09-10T19:15:59.279Z,17.20
2022-09-10T19:21:04.946Z,17.10
2022-09-10T19:26:09.957Z,17.10
2022-09-10T19:31:13.743Z,17.10
2022-09-10T19:36:17.897Z,17.00
2022-09-10T19:41:19.829Z,16.90
2022-09-10T19:46:22.749Z,16.90
2022-09-10T19:51:25.094Z,16.90
2022-09-10T19:56:33.253Z,16.80
2022-09-10T20:01:40.934Z,16.80
2022-09-10T20:06:45.988Z,16.80
2022-09-10T20:11:48.123Z,16.80
2022-09-10T20:16:50.053Z,16.80
2022-09-10T20:21:52.031Z,16.80
2022-09-10T20:26:54.617Z,16.70
2022-09-10T20:31:56.732Z,16.70
